createdAt,value
2022-10-08T00:00:53.760Z,101011.81
2022-10-08T00:03:25.470Z,101017.81
2022-10-08T00:06:12.702Z,101006.88
2022-10-08T00:08:41.739Z,101007.31
2022-10-08T00:11:12.142Z,101006.88
2022-10-08T00:13:44.730Z,101015.63
2022-10-08T00:16:14.251Z,101003.19
2022-10-08T00:18:42.423Z,101005.53
2022-10-08T00:21:14.362Z,101003.91
2022-10-08T00:23:41.547Z,100997.88
2022-10-08T00:26:08.428Z,101006.63
2022-10-08T00:28:40.754Z,100997.78
2022-10-08T00:31:14.007Z,100994.50
2022-10-08T00:33:40.324Z,101000.94
2022-10-08T00:36:09.858Z,100994.50
2022-10-08T00:38:36.953Z,100995.69
2022-10-08T00:41:05.717Z,100984.06
2022-10-08T00:43:45.241Z,100992.84
2022-10-08T00:46:31.546Z,100996.34
2022-10-08T00:49:20.061Z,100998.69
2022-10-08T00:51:55.590Z,100995.88
2022-10-08T00:54:23.152Z,100994.72
2022-10-08T00:56:52.685Z,100997.06
2022-10-08T00:59:20.257Z,100992.66
2022-10-08T01:01:47.056Z,100988.66
2022-10-08T01:04:14.855Z,100985.88
2022-10-08T01:07:04.276Z,100989.84
2022-10-08T01:09:38.139Z,100987.84
2022-10-08T01:12:19.180Z,100993.56
2022-10-08T01:14:56.003Z,100986.75
2022-10-08T01:17:31.425Z,100981.97
2022-10-08T01:20:38.945Z,100984.78
2022-10-08T01:23:29.305Z,100988.47
2022-10-08T01:26:20.694Z,100988.56
2022-10-08T01:28:59.613Z,100986.28
2022-10-08T01:31:42.542Z,100993.50
2022-10-08T01:34:17.505Z,100984.38
2022-10-08T01:36:47.336Z,100984.47
2022-10-08T01:39:18.644Z,100980.47
2022-10-08T01:41:51.357Z,100982.09
2022-10-08T01:44:30.234Z,100983.72
2022-10-08T01:46:59.285Z,100988.22
2022-10-08T01:49:34.126Z,100987.03
2022-10-08T01:52:08.452Z,100986.69
2022-10-08T01:54:37.260Z,100983.13
2022-10-08T02:00:54.432Z,100973.63
2022-10-08T02:03:21.001Z,100971.28
2022-10-08T02:05:51.955Z,100976.09
2022-10-08T02:08:18.818Z,100965.69
2022-10-08T02:10:46.580Z,100960.06
2022-10-08T02:13:13.119Z,100957.63
2022-10-08T02:15:59.729Z,100959.19
2022-10-08T02:18:43.299Z,100969.94
2022-10-08T02:21:19.241Z,100963.19
2022-10-08T02:23:56.600Z,100969.13
2022-10-08T02:26:31.668Z,100965.97
2022-10-08T02:29:06.191Z,100972.38
2022-10-08T02:31:49.790Z,100970.41
2022-10-08T02:34:32.699Z,100962.41
2022-10-08T02:37:09.336Z,100968.09
2022-10-08T02:39:39.420Z,100971.00
2022-10-08T02:42:13.946Z,100965.81
2022-10-08T02:44:45.167Z,100958.72
2022-10-08T02:47:16.370Z,100957.19
2022-10-08T02:49:50.026Z,100952.09
2022-10-08T02:52:19.008Z,100949.00
2022-10-08T02:54:48.259Z,100945.88
2022-10-08T02:57:21.393Z,100947.97
2022-10-08T02:59:48.382Z,100949.69
2022-10-08T03:02:26.220Z,100951.31
2022-10-08T03:05:01.619Z,100956.19
2022-10-08T03:07:31.159Z,100948.19
2022-10-08T03:09:59.297Z,100946.28
2022-10-08T03:12:26.357Z,100957.09
2022-10-08T03:14:53.879Z,100959.19
2022-10-08T03:17:27.498Z,100952.81
2022-10-08T03:19:54.647Z,100944.47
2022-10-08T03:22:21.038Z,100946.97
2022-10-08T03:24:47.445Z,100968.28
2022-10-08T03:27:13.880Z,100960.75
2022-10-08T03:29:41.309Z,100960.00
2022-10-08T03:32:08.462Z,100960.88
2022-10-08T03:34:34.977Z,100964.56
2022-10-08T03:37:01.595Z,100961.38
2022-10-08T03:39:27.978Z,100975.03
2022-10-08T03:41:54.348Z,100976.31
2022-10-08T03:44:20.706Z,100970.31
2022-10-08T03:46:47.735Z,100973.53
2022-10-08T03:49:14.108Z,100970.72
2022-10-08T03:51:40.542Z,100976.78
2022-10-08T03:54:08.286Z,100988.84
2022-10-08T03:56:34.625Z,100986.38
2022-10-08T03:59:01.159Z,100993.56
2022-10-08T04:01:30.813Z,100991.88
2022-10-08T04:03:57.320Z,100998.22
2022-10-08T04:06:23.920Z,100998.53
2022-10-08T04:08:50.301Z,101001.66
2022-10-08T04:11:18.105Z,101000.41
2022-10-08T04:13:44.765Z,101003.16
2022-10-08T04:16:14.622Z,101002.28
2022-10-08T04:18:41.895Z,101009.44
2022-10-08T04:21:11.588Z,101002.94
2022-10-08T04:23:39.591Z,101010.91
2022-10-08T04:26:06.283Z,101004.06
2022-10-08T04:28:37.567Z,101014.00
2022-10-08T04:31:11.495Z,101012.69
2022-10-08T04:33:38.110Z,101019.50
2022-10-08T04:36:12.574Z,101020.59
2022-10-08T04:38:38.924Z,101012.63
2022-10-08T04:41:08.194Z,101018.22
2022-10-08T04:43:37.016Z,101029.44
2022-10-08T04:46:04.275Z,101019.84
2022-10-08T04:48:31.044Z,101022.66
2022-10-08T04:51:04.070Z,101018.69
2022-10-08T04:53:32.924Z,101025.91
2022-10-08T04:56:12.510Z,101027.91
2022-10-08T04:58:40.090Z,101025.53
2022-10-08T05:01:08.596Z,101025.19
2022-10-08T05:03:39.640Z,101028.00
2022-10-08T05:06:07.040Z,101030.41
2022-10-08T05:08:33.725Z,101039.25
2022-10-08T05:11:00.399Z,101043.69
2022-10-08T05:13:27.039Z,101049.75
2022-10-08T05:15:53.577Z,101046.94
2022-10-08T05:18:19.940Z,101053.78
2022-10-08T05:20:46.276Z,101048.19
2022-10-08T05:23:13.448Z,101055.06
2022-10-08T05:25:40.328Z,101051.44
2022-10-08T05:28:06.909Z,101045.47
2022-10-08T05:30:33.532Z,101052.34
2022-10-08T05:33:00.153Z,101053.97
2022-10-08T05:35:26.703Z,101062.81
2022-10-08T05:37:53.037Z,101060.81
2022-10-08T05:40:20.645Z,101064.44
2022-10-08T05:42:47.304Z,101063.25
2022-10-08T05:45:14.458Z,101071.31
2022-10-08T05:47:41.488Z,101076.91
2022-10-08T05:50:08.528Z,101079.34
2022-10-08T05:52:34.850Z,101070.91
2022-10-08T05:55:01.222Z,101082.16
2022-10-08T05:57:27.957Z,101076.53
2022-10-08T05:59:54.271Z,101085.75
2022-10-08T06:02:21.223Z,101082.53
2022-10-08T06:04:49.443Z,101088.13
2022-10-08T06:07:16.468Z,101090.13
2022-10-08T06:09:46.965Z,101086.13
2022-10-08T06:12:14.196Z,101105.41
2022-10-08T06:14:41.115Z,101096.97
2022-10-08T06:17:07.570Z,101118.28
2022-10-08T06:19:37.241Z,101115.47
2022-10-08T06:22:06.864Z,101121.09
2022-10-08T06:24:33.215Z,101117.91
2022-10-08T06:26:59.622Z,101123.13
2022-10-08T06:29:26.106Z,101129.56
2022-10-08T06:31:52.716Z,101141.22
2022-10-08T06:34:22.043Z,101136.44
2022-10-08T06:36:48.439Z,101133.63
2022-10-08T06:39:17.671Z,101133.63
2022-10-08T06:41:44.484Z,101151.69
2022-10-08T06:44:13.482Z,101148.09
2022-10-08T06:46:40.155Z,101147.75
2022-10-08T06:49:06.876Z,101148.16
2022-10-08T06:51:33.603Z,101151.78
2022-10-08T06:54:07.032Z,101160.22
2022-10-08T06:56:36.328Z,101166.28
2022-10-08T06:59:04.212Z,101171.50
2022-10-08T07:01:33.925Z,101176.31
2022-10-08T07:04:01.509Z,101181.94
2022-10-08T07:06:28.707Z,101177.13
2022-10-08T07:08:59.102Z,101183.94
2022-10-08T07:11:26.586Z,101185.53
2022-10-08T07:13:55.462Z,101182.75
2022-10-08T07:16:24.217Z,101187.97
2022-10-08T07:18:52.583Z,101197.66
2022-10-08T07:21:21.393Z,101197.28
2022-10-08T07:23:48.459Z,101199.38
2022-10-08T07:26:23.003Z,101214.59
2022-10-08T07:28:55.225Z,101218.66
2022-10-08T07:31:24.662Z,101218.25
2022-10-08T07:33:51.911Z,101220.72
2022-10-08T07:36:20.492Z,101221.06
2022-10-08T07:38:48.433Z,101221.16
2022-10-08T07:41:14.920Z,101229.66
2022-10-08T07:43:41.547Z,101224.44
2022-10-08T07:46:10.226Z,101225.59
2022-10-08T07:48:38.584Z,101239.28
2022-10-08T07:51:15.538Z,101242.91
2022-10-08T07:53:44.500Z,101232.97
2022-10-08T07:56:12.950Z,101241.41
2022-10-08T07:58:39.512Z,101251.53
2022-10-08T08:01:08.791Z,101244.38
2022-10-08T08:03:36.143Z,101238.81
2022-10-08T08:06:09.552Z,101254.56
2022-10-08T08:08:55.642Z,101264.34
2022-10-08T08:11:23.961Z,101267.69
2022-10-08T08:13:53.861Z,101272.53
2022-10-08T08:16:26.807Z,101278.25
2022-10-08T08:18:59.058Z,101279.88
2022-10-08T08:21:28.296Z,101277.94
2022-10-08T08:23:56.883Z,101283.56
2022-10-08T08:26:32.863Z,101282.84
2022-10-08T08:29:02.129Z,101286.16
2022-10-08T08:31:36.276Z,101289.78
2022-10-08T08:34:07.183Z,101286.97
2022-10-08T08:36:40.809Z,101288.56
2022-10-08T08:39:13.809Z,101299.44
2022-10-08T08:41:55.666Z,101314.75
2022-10-08T08:44:24.564Z,101301.69
2022-10-08T08:47:17.253Z,101315.44
2022-10-08T08:49:48.189Z,101312.34
2022-10-08T08:52:17.905Z,101326.09
2022-10-08T08:54:49.551Z,101320.22
2022-10-08T08:57:34.184Z,101326.69
2022-10-08T09:00:05.669Z,101330.84
2022-10-08T09:02:38.291Z,101326.91
2022-10-08T09:05:13.273Z,101333.75
2022-10-08T09:08:05.964Z,101339.00
2022-10-08T09:10:42.780Z,101353.44
2022-10-08T09:13:32.033Z,101337.31
2022-10-08T09:15:58.952Z,101343.78
2022-10-08T09:18:25.491Z,101352.53
2022-10-08T09:20:52.296Z,101352.88
2022-10-08T09:23:22.773Z,101365.31
2022-10-08T09:26:08.175Z,101364.03
2022-10-08T09:28:55.679Z,101367.75
2022-10-08T09:31:40.241Z,101371.53
2022-10-08T09:34:15.875Z,101370.84
2022-10-08T09:36:54.605Z,101370.19
2022-10-08T09:39:26.453Z,101372.75
2022-10-08T09:42:07.956Z,101370.00
2022-10-08T09:44:52.313Z,101363.63
2022-10-08T09:47:21.300Z,101366.22
2022-10-08T09:50:07.488Z,101367.00
2022-10-08T09:52:36.615Z,101382.00
2022-10-08T09:55:09.541Z,101388.50
2022-10-08T09:57:44.816Z,101387.00
2022-10-08T10:00:37.145Z,101383.06
2022-10-08T10:03:15.265Z,101386.41
2022-10-08T10:05:41.811Z,101388.03
2022-10-08T10:08:47.762Z,101392.44
2022-10-08T10:11:41.929Z,101398.56
2022-10-08T10:14:28.749Z,101388.56
2022-10-08T10:17:06.168Z,101395.44
2022-10-08T10:19:42.352Z,101394.75
2022-10-08T10:22:19.429Z,101403.63
2022-10-08T10:24:59.140Z,101402.88
2022-10-08T10:27:42.982Z,101396.84
2022-10-08T10:30:20.256Z,101410.13
2022-10-08T10:32:53.097Z,101403.69
2022-10-08T10:35:19.518Z,101401.22
2022-10-08T10:37:54.804Z,101404.38
2022-10-08T10:40:50.315Z,101404.69
2022-10-08T10:43:50.608Z,101398.69
2022-10-08T10:46:33.823Z,101399.53
2022-10-08T10:49:00.829Z,101398.06
2022-10-08T10:51:49.840Z,101401.28
2022-10-08T10:54:42.999Z,101399.84
2022-10-08T10:57:34.009Z,101406.03
2022-10-08T11:00:07.282Z,101409.78
2022-10-08T11:02:42.864Z,101397.72
2022-10-08T11:05:33.263Z,101405.81
2022-10-08T11:08:18.383Z,101398.59
2022-10-08T11:11:09.116Z,101399.94
2022-10-08T11:14:04.151Z,101396.84
2022-10-08T11:16:48.667Z,101397.38
2022-10-08T11:19:26.033Z,101396.69
2022-10-08T11:22:25.199Z,101396.75
2022-10-08T11:25:06.180Z,101393.59
2022-10-08T11:27:50.845Z,101387.28
2022-10-08T11:30:36.752Z,101395.44
2022-10-08T11:33:05.026Z,101397.94
2022-10-08T11:35:41.709Z,101397.59
2022-10-08T11:38:17.019Z,101407.31
2022-10-08T11:40:54.812Z,101410.19
2022-10-08T11:43:37.456Z,101421.47
2022-10-08T11:46:32.812Z,101412.94
2022-10-08T11:49:24.037Z,101416.16
2022-10-08T11:51:52.203Z,101410.88
2022-10-08T11:54:29.017Z,101415.66
2022-10-08T11:58:07.363Z,101411.94
2022-10-08T12:00:40.734Z,101411.94
2022-10-08T12:03:32.086Z,101404.66
2022-10-08T12:06:13.474Z,101405.53
2022-10-08T12:08:59.242Z,101408.34
2022-10-08T12:11:31.753Z,101406.38
2022-10-08T12:14:13.475Z,101416.53
2022-10-08T12:16:49.080Z,101409.72
2022-10-08T12:19:35.184Z,101409.72
2022-10-08T12:22:25.451Z,101404.94
2022-10-08T12:25:01.092Z,101401.38
2022-10-08T12:27:31.082Z,101407.06
2022-10-08T12:30:02.029Z,101410.31
2022-10-08T12:32:43.959Z,101407.50
2022-10-08T12:35:31.355Z,101402.69
2022-10-08T12:38:08.954Z,101410.84
2022-10-08T12:40:48.675Z,101398.78
2022-10-08T12:43:47.873Z,101412.13
2022-10-08T12:46:33.440Z,101408.09
2022-10-08T12:49:21.739Z,101416.16
2022-10-08T12:52:04.316Z,101423.47
2022-10-08T12:54:32.291Z,101416.22
2022-10-08T12:57:00.972Z,101431.13
2022-10-08T12:59:32.158Z,101424.69
2022-10-08T13:01:59.159Z,101425.09
2022-10-08T13:04:29.859Z,101430.75
2022-10-08T13:06:56.649Z,101436.81
2022-10-08T13:09:26.624Z,101433.59
2022-10-08T13:12:02.915Z,101432.00
2022-10-08T13:14:32.109Z,101432.06
2022-10-08T13:16:59.002Z,101433.31
2022-10-08T13:19:35.196Z,101435.69
2022-10-08T13:22:24.353Z,101436.13
2022-10-08T13:24:51.072Z,101441.44
2022-10-08T13:27:27.569Z,101447.03
2022-10-08T13:29:55.552Z,101436.19
2022-10-08T13:32:35.224Z,101440.63
2022-10-08T13:35:04.655Z,101439.84
2022-10-08T13:37:38.116Z,101439.84
2022-10-08T13:40:13.520Z,101447.50
2022-10-08T13:42:43.282Z,101458.38
2022-10-08T13:45:24.586Z,101461.94
2022-10-08T13:47:51.847Z,101460.31
2022-10-08T13:50:19.420Z,101465.47
2022-10-08T13:52:55.564Z,101467.44
2022-10-08T13:55:29.277Z,101467.84
2022-10-08T13:57:57.647Z,101474.69
2022-10-08T14:00:24.056Z,101477.91
2022-10-08T14:02:51.607Z,101477.88
2022-10-08T14:05:19.070Z,101479.03
2022-10-08T14:07:47.833Z,101479.81
2022-10-08T14:10:14.882Z,101478.94
2022-10-08T14:12:41.675Z,101483.72
2022-10-08T14:15:11.636Z,101488.16
2022-10-08T14:17:38.541Z,101481.25
2022-10-08T14:20:05.451Z,101482.06
2022-10-08T14:22:38.582Z,101487.66
2022-10-08T14:25:15.633Z,101483.09
2022-10-08T14:27:42.078Z,101494.41
2022-10-08T14:30:10.608Z,101492.72
2022-10-08T14:32:36.900Z,101489.91
2022-10-08T14:35:04.714Z,101488.72
2022-10-08T14:37:31.159Z,101496.34
2022-10-08T14:39:57.568Z,101497.94
2022-10-08T14:42:24.069Z,101490.69
2022-10-08T14:44:51.614Z,101494.69
2022-10-08T14:47:17.959Z,101494.69
2022-10-08T14:49:44.483Z,101497.13
2022-10-08T14:52:11.192Z,101498.38
2022-10-08T14:54:37.686Z,101502.00
2022-10-08T14:57:04.229Z,101501.63
2022-10-08T14:59:30.560Z,101503.66
2022-10-08T15:01:56.985Z,101506.94
2022-10-08T15:04:23.320Z,101503.31
2022-10-08T15:06:49.665Z,101505.38
2022-10-08T15:09:16.727Z,101507.06
2022-10-08T15:11:43.121Z,101501.47
2022-10-08T15:14:09.664Z,101505.16
2022-10-08T15:16:36.142Z,101503.19
2022-10-08T15:19:02.480Z,101502.44
2022-10-08T15:21:28.789Z,101503.66
2022-10-08T15:23:56.774Z,101506.47
2022-10-08T15:26:23.084Z,101506.88
2022-10-08T15:28:52.989Z,101502.44
2022-10-08T15:31:22.624Z,101507.22
2022-10-08T15:33:51.007Z,101512.47
2022-10-08T15:36:28.325Z,101513.63
2022-10-08T15:39:03.441Z,101517.19
2022-10-08T15:41:33.687Z,101516.78
2022-10-08T15:44:31.247Z,101523.94
2022-10-08T15:47:04.332Z,101520.72
2022-10-08T15:49:31.754Z,101531.19
2022-10-08T15:51:58.655Z,101525.06
2022-10-08T15:54:25.059Z,101535.91
2022-10-08T15:56:51.347Z,101536.25
2022-10-08T15:59:17.815Z,101543.84
2022-10-08T16:01:44.160Z,101541.00
2022-10-08T16:04:14.134Z,101546.94
2022-10-08T16:06:45.521Z,101569.50
2022-10-08T16:09:16.659Z,101571.44
2022-10-08T16:11:44.178Z,101565.75
2022-10-08T16:14:19.288Z,101575.72
2022-10-08T16:16:46.309Z,101580.09
2022-10-08T16:19:16.437Z,101579.59
2022-10-08T16:21:44.287Z,101576.28
2022-10-08T16:24:11.023Z,101575.81
2022-10-08T16:26:39.783Z,101580.97
2022-10-08T16:29:09.071Z,101582.91
2022-10-08T16:31:37.564Z,101591.31
2022-10-08T16:34:11.384Z,101584.38
2022-10-08T16:36:38.014Z,101592.31
2022-10-08T16:39:06.282Z,101594.25
2022-10-08T16:41:34.456Z,101593.75
2022-10-08T16:44:12.947Z,101602.88
2022-10-08T16:46:41.994Z,101613.72
2022-10-08T16:49:18.336Z,101615.25
2022-10-08T16:51:47.808Z,101609.53
2022-10-08T16:54:15.907Z,101616.28
2022-10-08T16:56:44.382Z,101623.81
2022-10-08T16:59:14.268Z,101624.50
2022-10-08T17:01:42.852Z,101633.25
2022-10-08T17:04:09.468Z,101637.63
2022-10-08T17:06:36.186Z,101636.38
2022-10-08T17:09:04.112Z,101639.03
2022-10-08T17:11:30.867Z,101646.97
2022-10-08T17:13:58.253Z,101651.63
2022-10-08T17:16:26.574Z,101658.38
2022-10-08T17:18:55.162Z,101653.03
2022-10-08T17:21:22.895Z,101659.75
2022-10-08T17:23:50.062Z,101659.72
2022-10-08T17:26:20.039Z,101669.97
2022-10-08T17:28:48.228Z,101671.09
2022-10-08T17:31:18.026Z,101675.75
2022-10-08T17:33:44.969Z,101681.28
2022-10-08T17:36:17.223Z,101685.88
2022-10-08T17:38:45.685Z,101686.16
2022-10-08T17:41:24.555Z,101694.44
2022-10-08T17:43:51.595Z,101693.16
2022-10-08T17:46:21.300Z,101699.88
2022-10-08T17:48:48.292Z,101695.72
2022-10-08T17:51:17.693Z,101693.56
2022-10-08T17:53:45.651Z,101701.81
2022-10-08T17:56:13.549Z,101697.16
2022-10-08T17:58:40.250Z,101703.06
2022-10-08T18:01:12.630Z,101704.41
2022-10-08T18:03:40.865Z,101703.41
2022-10-08T18:06:09.223Z,101709.66
2022-10-08T18:08:36.035Z,101713.09
2022-10-08T18:11:08.536Z,101718.03
2022-10-08T18:13:35.603Z,101726.69
2022-10-08T18:16:04.762Z,101727.31
2022-10-08T18:18:31.501Z,101729.91
2022-10-08T18:20:59.164Z,101734.16
2022-10-08T18:23:27.249Z,101743.66
2022-10-08T18:25:54.153Z,101736.28
2022-10-08T18:28:21.825Z,101745.34
2022-10-08T18:30:48.558Z,101746.38
2022-10-08T18:33:15.311Z,101747.81
2022-10-08T18:35:43.406Z,101744.41
2022-10-08T18:38:09.701Z,101765.13
2022-10-08T18:40:36.064Z,101762.56
2022-10-08T18:43:02.356Z,101762.34
2022-10-08T18:45:28.748Z,101767.84
2022-10-08T18:47:55.242Z,101772.50
2022-10-08T18:50:21.549Z,101769.94
2022-10-08T18:52:48.102Z,101773.47
2022-10-08T18:55:14.619Z,101777.28
2022-10-08T18:57:41.101Z,101779.97
2022-10-08T19:00:08.280Z,101786.28
2022-10-08T19:02:34.691Z,101789.31
2022-10-08T19:05:01.080Z,101793.66
2022-10-08T19:07:27.415Z,101794.69
2022-10-08T19:09:53.764Z,101788.13
2022-10-08T19:12:20.324Z,101784.38
2022-10-08T19:14:47.219Z,101794.19
2022-10-08T19:17:13.577Z,101790.91
2022-10-08T19:19:39.946Z,101802.03
2022-10-08T19:22:06.318Z,101805.06
2022-10-08T19:24:32.615Z,101810.53
2022-10-08T19:26:59.162Z,101812.72
2022-10-08T19:29:29.501Z,101813.28
2022-10-08T19:31:56.477Z,101815.47
2022-10-08T19:34:25.493Z,101815.69
2022-10-08T19:36:52.636Z,101818.03
2022-10-08T19:39:22.248Z,101810.19
2022-10-08T19:41:49.601Z,101820.09
2022-10-08T19:44:16.922Z,101822.75
2022-10-08T19:46:44.135Z,101826.25
2022-10-08T19:49:10.902Z,101836.97
2022-10-08T19:51:37.864Z,101821.19
2022-10-08T19:54:04.764Z,101833.94
2022-10-08T19:56:31.655Z,101833.75
2022-10-08T19:58:58.276Z,101833.59
2022-10-08T20:01:35.998Z,101832.19
2022-10-08T20:04:04.893Z,101833.00
2022-10-08T20:06:33.459Z,101837.28
2022-10-08T20:09:01.015Z,101843.25
2022-10-08T20:11:29.141Z,101846.03
2022-10-08T20:13:56.321Z,101845.06
2022-10-08T20:16:28.517Z,101850.88
2022-10-08T20:19:01.547Z,101851.56
2022-10-08T20:21:30.132Z,101849.44
2022-10-08T20:23:56.785Z,101856.53
2022-10-08T20:26:31.646Z,101856.88
2022-10-08T20:29:05.079Z,101866.66
2022-10-08T20:31:34.202Z,101859.25
2022-10-08T20:34:03.693Z,101866.22
2022-10-08T20:36:31.141Z,101861.94
2022-10-08T20:38:58.136Z,101865.44
2022-10-08T20:41:30.402Z,101862.50
2022-10-08T20:44:00.413Z,101866.31
2022-10-08T20:46:27.163Z,101868.28
2022-10-08T20:48:53.598Z,101870.09
2022-10-08T20:51:23.335Z,101875.53
2022-10-08T20:54:11.612Z,101875.72
2022-10-08T20:56:40.378Z,101868.97
2022-10-08T20:59:13.810Z,101873.28
2022-10-08T21:01:40.222Z,101880.03
2022-10-08T21:04:07.666Z,101873.13
2022-10-08T21:06:39.738Z,101876.63
2022-10-08T21:09:07.515Z,101885.81
2022-10-08T21:11:35.098Z,101886.47
2022-10-08T21:14:03.433Z,101877.09
2022-10-08T21:16:32.922Z,101885.34
2022-10-08T21:19:02.113Z,101896.38
2022-10-08T21:21:31.569Z,101888.16
2022-10-08T21:23:59.049Z,101888.16
2022-10-08T21:26:30.919Z,101893.59
2022-10-08T21:28:59.664Z,101891.13
2022-10-08T21:31:27.932Z,101897.03
2022-10-08T21:33:55.559Z,101897.38
2022-10-08T21:36:25.712Z,101894.75
2022-10-08T21:38:52.365Z,101901.50
2022-10-08T21:41:21.646Z,101894.59
2022-10-08T21:43:56.792Z,101891.63
2022-10-08T21:46:26.074Z,101890.00
2022-10-08T21:49:05.464Z,101894.59
2022-10-08T21:51:33.636Z,101893.78
2022-10-08T21:54:02.058Z,101891.69
2022-10-08T21:56:31.345Z,101891.50
2022-10-08T21:58:59.769Z,101892.97
2022-10-08T22:01:37.082Z,101897.28
2022-10-08T22:04:06.214Z,101900.06
2022-10-08T22:06:37.313Z,101897.09
2022-10-08T22:09:10.586Z,101908.94
2022-10-08T22:11:37.455Z,101898.91
2022-10-08T22:14:04.517Z,101908.78
2022-10-08T22:16:31.031Z,101897.09
2022-10-08T22:18:58.183Z,101905.81
2022-10-08T22:21:24.935Z,101900.88
2022-10-08T22:23:52.593Z,101901.22
2022-10-08T22:26:22.702Z,101907.47
2022-10-08T22:28:50.514Z,101902.22
2022-10-08T22:31:18.774Z,101901.75
2022-10-08T22:33:45.637Z,101900.41
2022-10-08T22:36:15.424Z,101904.69
2022-10-08T22:38:44.292Z,101909.78
2022-10-08T22:41:16.696Z,101905.69
2022-10-08T22:43:43.810Z,101902.06
2022-10-08T22:46:13.462Z,101903.53
2022-10-08T22:48:40.439Z,101905.84
2022-10-08T22:51:10.787Z,101911.25
2022-10-08T22:53:37.782Z,101912.88
2022-10-08T22:56:06.496Z,101911.91
2022-10-08T22:58:34.130Z,101912.22
2022-10-08T23:01:12.284Z,101914.53
2022-10-08T23:03:39.161Z,101904.50
2022-10-08T23:06:21.976Z,101914.38
2022-10-08T23:08:54.723Z,101904.66
2022-10-08T23:11:21.444Z,101901.06
2022-10-08T23:13:56.163Z,101910.09
2022-10-08T23:16:24.105Z,101906.16
2022-10-08T23:19:01.726Z,101912.03
2022-10-08T23:21:28.627Z,101904.50
2022-10-08T23:23:55.975Z,101902.84
2022-10-08T23:26:23.833Z,101906.78
2022-10-08T23:28:52.235Z,101908.28
2022-10-08T23:31:20.994Z,101907.78
2022-10-08T23:33:48.920Z,101908.09
2022-10-08T23:36:18.788Z,101903.69
2022-10-08T23:38:45.590Z,101905.94
2022-10-08T23:41:12.638Z,101904.97
2022-10-08T23:43:42.048Z,101904.78
2022-10-08T23:46:10.586Z,101895.88
2022-10-08T23:48:37.600Z,101898.69
2022-10-08T23:51:05.789Z,101901.47
2022-10-08T23:53:33.316Z,101898.50
2022-10-08T23:55:59.704Z,101910.34
2022-10-08T23:58:26.399Z,101906.53
